sensor_id;sensor_type;location;lat;lon;timestamp;pressure;altitude;pressure_sealevel;temperature;humidity
37904;BME280;23738;50.422;18.758;2022-12-07T00:01:25;98002.73;;;1.84;87.15
37904;BME280;23738;50.422;18.758;2022-12-07T00:03:54;98012.85;;;1.87;87.15
37904;BME280;23738;50.422;18.758;2022-12-07T00:06:26;98008.98;;;1.91;87.25
37904;BME280;23738;50.422;18.758;2022-12-07T00:08:52;98005.06;;;1.91;87.16
37904;BME280;23738;50.422;18.758;2022-12-07T00:11:20;98003.92;;;1.89;87.18
37904;BME280;23738;50.422;18.758;2022-12-07T00:13:53;98012.39;;;1.96;87.46
37904;BME280;23738;50.422;18.758;2022-12-07T00:16:22;98012.25;;;1.97;87.40
37904;BME280;23738;50.422;18.758;2022-12-07T00:18:49;98012.09;;;1.99;87.33
37904;BME280;23738;50.422;18.758;2022-12-07T00:21:18;98010.45;;;2.02;87.29
37904;BME280;23738;50.422;18.758;2022-12-07T00:23:50;98007.88;;;2.06;87.26
37904;BME280;23738;50.422;18.758;2022-12-07T00:26:28;98008.03;;;2.08;87.23
37904;BME280;23738;50.422;18.758;2022-12-07T00:28:53;98005.61;;;2.07;87.17
37904;BME280;23738;50.422;18.758;2022-12-07T00:31:23;98002.82;;;2.04;87.11
37904;BME280;23738;50.422;18.758;2022-12-07T00:33:51;98002.16;;;2.02;87.17
37904;BME280;23738;50.422;18.758;2022-12-07T00:36:19;98003.80;;;2.03;87.14
37904;BME280;23738;50.422;18.758;2022-12-07T00:38:47;98002.97;;;2.03;87.04
37904;BME280;23738;50.422;18.758;2022-12-07T00:41:18;97994.52;;;2.05;87.03
37904;BME280;23738;50.422;18.758;2022-12-07T00:43:47;97995.31;;;2.01;87.04
37904;BME280;23738;50.422;18.758;2022-12-07T00:46:15;97995.31;;;1.97;86.90
37904;BME280;23738;50.422;18.758;2022-12-07T00:48:41;97995.77;;;1.88;86.68
37904;BME280;23738;50.422;18.758;2022-12-07T00:51:13;97989.89;;;1.82;86.72
37904;BME280;23738;50.422;18.758;2022-12-07T00:53:38;97991.98;;;1.79;86.78
37904;BME280;23738;50.422;18.758;2022-12-07T00:56:12;97988.23;;;1.77;86.83
37904;BME280;23738;50.422;18.758;2022-12-07T00:58:40;97983.84;;;1.78;86.81
37904;BME280;23738;50.422;18.758;2022-12-07T01:01:07;97989.08;;;1.82;86.83
37904;BME280;23738;50.422;18.758;2022-12-07T01:03:34;97987.77;;;1.82;86.94
37904;BME280;23738;50.422;18.758;2022-12-07T01:06:00;97988.41;;;1.84;86.83
37904;BME280;23738;50.422;18.758;2022-12-07T01:08:26;97984.98;;;1.75;86.70
37904;BME280;23738;50.422;18.758;2022-12-07T01:11:05;97977.66;;;1.75;86.99
37904;BME280;23738;50.422;18.758;2022-12-07T01:13:33;97978.30;;;1.77;87.07
37904;BME280;23738;50.422;18.758;2022-12-07T01:16:02;97961.67;;;1.70;86.95
37904;BME280;23738;50.422;18.758;2022-12-07T01:18:31;97969.03;;;1.78;86.90
37904;BME280;23738;50.422;18.758;2022-12-07T01:21:10;97971.81;;;1.81;86.89
37904;BME280;23738;50.422;18.758;2022-12-07T01:23:32;97970.52;;;1.81;86.94
37904;BME280;23738;50.422;18.758;2022-12-07T01:26:01;97975.23;;;1.81;87.06
37904;BME280;23738;50.422;18.758;2022-12-07T01:28:29;97968.88;;;1.80;87.03
37904;BME280;23738;50.422;18.758;2022-12-07T01:33:32;97975.88;;;1.75;86.90
37904;BME280;23738;50.422;18.758;2022-12-07T01:36:04;97979.93;;;1.78;87.05
37904;BME280;23738;50.422;18.758;2022-12-07T01:38:32;97977.02;;;1.81;86.97
37904;BME280;23738;50.422;18.758;2022-12-07T01:40:59;97972.78;;;1.80;86.90
37904;BME280;23738;50.422;18.758;2022-12-07T01:43:28;97973.78;;;1.83;87.16
37904;BME280;23738;50.422;18.758;2022-12-07T01:45:55;97969.88;;;1.83;87.16
37904;BME280;23738;50.422;18.758;2022-12-07T01:48:24;97970.52;;;1.81;87.15
37904;BME280;23738;50.422;18.758;2022-12-07T01:50:53;97974.09;;;1.84;87.15
37904;BME280;23738;50.422;18.758;2022-12-07T01:53:24;97968.73;;;1.85;87.12
37904;BME280;23738;50.422;18.758;2022-12-07T01:55:52;97970.05;;;1.89;87.13
37904;BME280;23738;50.422;18.758;2022-12-07T01:58:18;97970.05;;;1.89;87.03
37904;BME280;23738;50.422;18.758;2022-12-07T02:00:45;97966.30;;;1.88;87.09
37904;BME280;23738;50.422;18.758;2022-12-07T02:03:27;97968.73;;;1.85;87.12
37904;BME280;23738;50.422;18.758;2022-12-07T02:05:57;97975.57;;;1.82;87.08
37904;BME280;23738;50.422;18.758;2022-12-07T02:08:25;97972.30;;;1.84;87.22
37904;BME280;23738;50.422;18.758;2022-12-07T02:10:51;97956.67;;;1.80;87.25
37904;BME280;23738;50.422;18.758;2022-12-07T02:13:30;97973.95;;;1.93;87.30
37904;BME280;23738;50.422;18.758;2022-12-07T02:22:15;97970.53;;;1.93;87.16
37904;BME280;23738;50.422;18.758;2022-12-07T02:24:57;97967.42;;;1.85;87.08
37904;BME280;23738;50.422;18.758;2022-12-07T02:27:47;97965.48;;;1.83;86.96
37904;BME280;23738;50.422;18.758;2022-12-07T02:30:38;97964.34;;;1.82;86.91
37904;BME280;23738;50.422;18.758;2022-12-07T02:33:11;97954.25;;;1.83;87.14
37904;BME280;23738;50.422;18.758;2022-12-07T02:35:46;97960.76;;;1.87;87.26
37904;BME280;23738;50.422;18.758;2022-12-07T02:38:20;97956.70;;;1.88;87.30
37904;BME280;23738;50.422;18.758;2022-12-07T02:41:07;97958.34;;;1.89;87.31
37904;BME280;23738;50.422;18.758;2022-12-07T02:43:34;97955.40;;;1.88;87.31
37904;BME280;23738;50.422;18.758;2022-12-07T02:46:12;97951.01;;;1.89;87.20
37904;BME280;23738;50.422;18.758;2022-12-07T02:48:47;97947.25;;;1.87;87.05
37904;BME280;23738;50.422;18.758;2022-12-07T02:51:17;97951.48;;;1.88;87.06
37904;BME280;23738;50.422;18.758;2022-12-07T02:53:44;97948.41;;;1.89;87.03
37904;BME280;23738;50.422;18.758;2022-12-07T03:11:09;97945.46;;;1.88;87.11
37904;BME280;23738;50.422;18.758;2022-12-07T03:13:57;97939.44;;;1.87;87.22
37904;BME280;23738;50.422;18.758;2022-12-07T03:16:31;97940.73;;;1.87;87.21
37904;BME280;23738;50.422;18.758;2022-12-07T03:18:58;97933.23;;;1.84;87.30
37904;BME280;23738;50.422;18.758;2022-12-07T03:21:36;97931.11;;;1.80;87.15
37904;BME280;23738;50.422;18.758;2022-12-07T03:24:14;97933.39;;;1.79;87.14
37904;BME280;23738;50.422;18.758;2022-12-07T03:26:46;97934.05;;;1.81;87.11
37904;BME280;23738;50.422;18.758;2022-12-07T03:29:19;97925.24;;;1.78;87.18
37904;BME280;23738;50.422;18.758;2022-12-07T03:31:47;97924.12;;;1.84;87.13
37904;BME280;23738;50.422;18.758;2022-12-07T03:34:19;97930.47;;;1.86;87.23
37904;BME280;23738;50.422;18.758;2022-12-07T03:39:30;97928.33;;;1.77;87.01
37904;BME280;23738;50.422;18.758;2022-12-07T03:42:03;97925.25;;;1.74;87.02
37904;BME280;23738;50.422;18.758;2022-12-07T03:44:31;97924.77;;;1.74;87.08
37904;BME280;23738;50.422;18.758;2022-12-07T03:47:13;97924.43;;;1.73;86.93
37904;BME280;23738;50.422;18.758;2022-12-07T03:49:58;97921.19;;;1.75;87.20
37904;BME280;23738;50.422;18.758;2022-12-07T03:52:45;97924.28;;;1.75;87.08
37904;BME280;23738;50.422;18.758;2022-12-07T03:55:34;97923.09;;;1.69;87.10
37904;BME280;23738;50.422;18.758;2022-12-07T03:58:05;97923.25;;;1.68;87.21
37904;BME280;23738;50.422;18.758;2022-12-07T04:00:32;97924.73;;;1.66;87.19
37904;BME280;23738;50.422;18.758;2022-12-07T04:02:58;97927.82;;;1.70;87.30
37904;BME280;23738;50.422;18.758;2022-12-07T04:05:24;97929.45;;;1.71;87.21
37904;BME280;23738;50.422;18.758;2022-12-07T04:07:50;97919.67;;;1.69;87.11
37904;BME280;23738;50.422;18.758;2022-12-07T04:10:16;97915.11;;;1.63;87.10
37904;BME280;23738;50.422;18.758;2022-12-07T04:12:42;97918.83;;;1.56;87.08
37904;BME280;23738;50.422;18.758;2022-12-07T04:15:09;97916.05;;;1.53;87.11
37904;BME280;23738;50.422;18.758;2022-12-07T04:17:35;97919.47;;;1.54;87.11
37904;BME280;23738;50.422;18.758;2022-12-07T04:20:02;97916.72;;;1.56;87.11
37904;BME280;23738;50.422;18.758;2022-12-07T04:22:29;97918.35;;;1.57;87.18
37904;BME280;23738;50.422;18.758;2022-12-07T04:24:55;97918.50;;;1.55;87.22
37904;BME280;23738;50.422;18.758;2022-12-07T04:27:21;97916.05;;;1.53;87.32
37904;BME280;23738;50.422;18.758;2022-12-07T04:29:47;97921.92;;;1.51;87.30
37904;BME280;23738;50.422;18.758;2022-12-07T04:32:12;97915.41;;;1.51;87.33
37904;BME280;23738;50.422;18.758;2022-12-07T04:34:38;97921.92;;;1.51;87.28
37904;BME280;23738;50.422;18.758;2022-12-07T04:37:04;97927.28;;;1.54;87.38
37904;BME280;23738;50.422;18.758;2022-12-07T04:39:32;97921.26;;;1.53;87.37
37904;BME280;23738;50.422;18.758;2022-12-07T04:42:00;97923.05;;;1.53;87.45
37904;BME280;23738;50.422;18.758;2022-12-07T04:44:27;97922.70;;;1.52;87.51
37904;BME280;23738;50.422;18.758;2022-12-07T04:46:54;97923.86;;;1.49;87.58
37904;BME280;23738;50.422;18.758;2022-12-07T04:49:21;97919.29;;;1.43;87.51
37904;BME280;23738;50.422;18.758;2022-12-07T04:51:47;97916.69;;;1.43;87.54
37904;BME280;23738;50.422;18.758;2022-12-07T04:54:14;97916.69;;;1.43;87.44
37904;BME280;23738;50.422;18.758;2022-12-07T04:56:41;97909.18;;;1.44;87.50
37904;BME280;23738;50.422;18.758;2022-12-07T04:59:09;97914.72;;;1.45;87.50
37904;BME280;23738;50.422;18.758;2022-12-07T05:01:36;97901.52;;;1.39;87.54
37904;BME280;23738;50.422;18.758;2022-12-07T05:04:02;97911.78;;;1.44;87.64
37904;BME280;23738;50.422;18.758;2022-12-07T05:06:28;97913.57;;;1.44;87.68
37904;BME280;23738;50.422;18.758;2022-12-07T05:08:54;97912.27;;;1.44;87.68
37904;BME280;23738;50.422;18.758;2022-12-07T05:11:20;97921.22;;;1.45;87.69
37904;BME280;23738;50.422;18.758;2022-12-07T05:14:17;97915.87;;;1.47;87.62
37904;BME280;23738;50.422;18.758;2022-12-07T05:16:46;97918.95;;;1.46;87.73
37904;BME280;23738;50.422;18.758;2022-12-07T05:19:14;97913.45;;;1.49;87.87
37904;BME280;23738;50.422;18.758;2022-12-07T05:21:40;97919.77;;;1.47;87.80
37904;BME280;23738;50.422;18.758;2022-12-07T05:24:07;97912.93;;;1.42;87.78
37904;BME280;23738;50.422;18.758;2022-12-07T05:26:34;97910.33;;;1.42;87.80
37904;BME280;23738;50.422;18.758;2022-12-07T05:29:00;97915.69;;;1.44;87.80
37904;BME280;23738;50.422;18.758;2022-12-07T05:31:26;97917.32;;;1.45;87.76
37904;BME280;23738;50.422;18.758;2022-12-07T05:33:52;97918.95;;;1.42;87.73
37904;BME280;23738;50.422;18.758;2022-12-07T05:36:19;97916.50;;;1.41;87.82
37904;BME280;23738;50.422;18.758;2022-12-07T05:38:45;97918.11;;;1.38;87.87
37904;BME280;23738;50.422;18.758;2022-12-07T05:41:13;97920.04;;;1.36;87.87
37904;BME280;23738;50.422;18.758;2022-12-07T05:43:59;97923.80;;;1.33;87.86
37904;BME280;23738;50.422;18.758;2022-12-07T05:46:24;97913.38;;;1.33;87.90
37904;BME280;23738;50.422;18.758;2022-12-07T05:48:50;97918.11;;;1.34;87.89
37904;BME280;23738;50.422;18.758;2022-12-07T05:51:16;97915.98;;;1.33;87.89
37904;BME280;23738;50.422;18.758;2022-12-07T05:53:42;97917.44;;;1.32;87.98
37904;BME280;23738;50.422;18.758;2022-12-07T05:56:08;97922.45;;;1.29;88.00
37904;BME280;23738;50.422;18.758;2022-12-07T05:58:33;97923.13;;;1.31;88.13
37904;BME280;23738;50.422;18.758;2022-12-07T06:01:17;97920.86;;;1.32;88.01
37904;BME280;23738;50.422;18.758;2022-12-07T06:03:43;97917.92;;;1.31;88.00
37904;BME280;23738;50.422;18.758;2022-12-07T06:06:10;97923.31;;;1.34;88.10
37904;BME280;23738;50.422;18.758;2022-12-07T06:08:35;97921.34;;;1.32;88.10
37904;BME280;23738;50.422;18.758;2022-12-07T06:11:02;97923.27;;;1.30;88.19
37904;BME280;23738;50.422;18.758;2022-12-07T06:13:46;97929.30;;;1.26;88.10
37904;BME280;23738;50.422;18.758;2022-12-07T06:16:12;97923.13;;;1.27;88.15
37904;BME280;23738;50.422;18.758;2022-12-07T06:18:37;97939.22;;;1.31;88.15
37904;BME280;23738;50.422;18.758;2022-12-07T06:21:03;97938.41;;;1.30;88.21
37904;BME280;23738;50.422;18.758;2022-12-07T06:23:29;97941.00;;;1.30;88.28
37904;BME280;23738;50.422;18.758;2022-12-07T06:25:55;97949.14;;;1.27;88.23
37904;BME280;23738;50.422;18.758;2022-12-07T06:28:21;97940.00;;;1.23;88.23
37904;BME280;23738;50.422;18.758;2022-12-07T06:30:46;97947.80;;;1.23;88.31
37904;BME280;23738;50.422;18.758;2022-12-07T06:33:12;97941.15;;;1.25;88.28
37904;BME280;23738;50.422;18.758;2022-12-07T06:35:38;97942.30;;;1.26;88.34
37904;BME280;23738;50.422;18.758;2022-12-07T06:38:03;97949.15;;;1.31;88.42
37904;BME280;23738;50.422;18.758;2022-12-07T06:40:29;97946.06;;;1.36;88.56
37904;BME280;23738;50.422;18.758;2022-12-07T06:42:55;97953.57;;;1.35;88.49
37904;BME280;23738;50.422;18.758;2022-12-07T06:45:21;97948.03;;;1.34;88.55
37904;BME280;23738;50.422;18.758;2022-12-07T06:47:47;97951.75;;;1.31;88.49
37904;BME280;23738;50.422;18.758;2022-12-07T06:50:13;97951.08;;;1.29;88.49
37904;BME280;23738;50.422;18.758;2022-12-07T06:52:38;97946.06;;;1.32;88.45
37904;BME280;23738;50.422;18.758;2022-12-07T06:55:05;97951.94;;;1.34;88.49
37904;BME280;23738;50.422;18.758;2022-12-07T06:57:31;97954.06;;;1.38;88.56
37904;BME280;23738;50.422;18.758;2022-12-07T06:59:57;97958.14;;;1.41;88.63
37904;BME280;23738;50.422;18.758;2022-12-07T07:02:22;97958.30;;;1.39;88.53
37904;BME280;23738;50.422;18.758;2022-12-07T07:04:48;97958.45;;;1.38;88.62
37904;BME280;23738;50.422;18.758;2022-12-07T07:07:14;97959.11;;;1.40;88.64
37904;BME280;23738;50.422;18.758;2022-12-07T07:09:40;97953.91;;;1.40;88.55
37904;BME280;23738;50.422;18.758;2022-12-07T07:12:06;97958.63;;;1.40;88.56
37904;BME280;23738;50.422;18.758;2022-12-07T07:14:32;97961.56;;;1.41;88.55
37904;BME280;23738;50.422;18.758;2022-12-07T07:16:58;97963.02;;;1.40;88.58
37904;BME280;23738;50.422;18.758;2022-12-07T07:19:23;97966.88;;;1.36;88.53
37904;BME280;23738;50.422;18.758;2022-12-07T07:21:49;97964.61;;;1.33;88.60
37904;BME280;23738;50.422;18.758;2022-12-07T07:24:15;97968.03;;;1.33;88.64
37904;BME280;23738;50.422;18.758;2022-12-07T07:26:41;97967.06;;;1.38;88.69
37904;BME280;23738;50.422;18.758;2022-12-07T07:29:06;97965.80;;;1.42;88.74
37904;BME280;23738;50.422;18.758;2022-12-07T07:31:32;97964.84;;;1.47;88.85
37904;BME280;23738;50.422;18.758;2022-12-07T07:34:00;97952.98;;;1.49;88.73
37904;BME280;23738;50.422;18.758;2022-12-07T07:36:25;97953.31;;;1.50;88.83
37904;BME280;23738;50.422;18.758;2022-12-07T07:38:51;97957.84;;;1.48;88.81
37904;BME280;23738;50.422;18.758;2022-12-07T07:41:17;97954.43;;;1.47;88.78
37904;BME280;23738;50.422;18.758;2022-12-07T07:43:43;97957.85;;;1.52;88.89
37904;BME280;23738;50.422;18.758;2022-12-07T07:46:08;97955.61;;;1.57;88.85
37904;BME280;23738;50.422;18.758;2022-12-07T07:48:34;97953.50;;;1.61;88.85
37904;BME280;23738;50.422;18.758;2022-12-07T07:51:00;97957.10;;;1.68;89.13
37904;BME280;23738;50.422;18.758;2022-12-07T07:53:25;97957.95;;;1.72;89.15
37904;BME280;23738;50.422;18.758;2022-12-07T07:55:56;97962.37;;;1.80;89.27
37904;BME280;23738;50.422;18.758;2022-12-07T07:58:20;97959.61;;;1.81;89.10
37904;BME280;23738;50.422;18.758;2022-12-07T08:00:46;97961.24;;;1.86;89.07
37904;BME280;23738;50.422;18.758;2022-12-07T08:03:12;97969.23;;;1.93;89.15
37904;BME280;23738;50.422;18.758;2022-12-07T08:05:38;97974.95;;;1.97;89.12
37904;BME280;23738;50.422;18.758;2022-12-07T08:08:04;97972.20;;;2.02;89.24
37904;BME280;23738;50.422;18.758;2022-12-07T08:10:30;97973.98;;;2.02;89.13
37904;BME280;23738;50.422;18.758;2022-12-07T08:12:58;97975.92;;;2.00;89.05
37904;BME280;23738;50.422;18.758;2022-12-07T08:15:37;97979.53;;;1.99;89.04
37904;BME280;23738;50.422;18.758;2022-12-07T08:18:05;97981.95;;;2.00;89.02
37904;BME280;23738;50.422;18.758;2022-12-07T08:20:32;97986.38;;;2.04;88.98
37904;BME280;23738;50.422;18.758;2022-12-07T08:22:59;97983.61;;;2.05;88.88
37904;BME280;23738;50.422;18.758;2022-12-07T08:25:25;97979.70;;;2.05;88.93
37904;BME280;23738;50.422;18.758;2022-12-07T08:27:51;97982.31;;;2.05;89.00
37904;BME280;23738;50.422;18.758;2022-12-07T08:30:17;97986.37;;;2.08;89.17
37904;BME280;23738;50.422;18.758;2022-12-07T08:32:45;97985.24;;;2.10;89.09
37904;BME280;23738;50.422;18.758;2022-12-07T08:35:11;97990.48;;;2.14;88.99
37904;BME280;23738;50.422;18.758;2022-12-07T08:37:38;97999.27;;;2.13;88.83
37904;BME280;23738;50.422;18.758;2022-12-07T08:40:06;97996.64;;;2.09;88.67
37904;BME280;23738;50.422;18.758;2022-12-07T08:42:34;97993.38;;;2.03;88.58
37904;BME280;23738;50.422;18.758;2022-12-07T08:45:11;98000.86;;;1.98;88.66
37904;BME280;23738;50.422;18.758;2022-12-07T08:47:41;98006.37;;;1.95;88.70
37904;BME280;23738;50.422;18.758;2022-12-07T08:50:13;98005.06;;;1.95;88.74
37904;BME280;23738;50.422;18.758;2022-12-07T08:52:40;98012.25;;;1.97;88.79
37904;BME280;23738;50.422;18.758;2022-12-07T08:55:09;98011.09;;;1.96;88.59
37904;BME280;23738;50.422;18.758;2022-12-07T08:57:36;98005.70;;;1.93;88.61
37904;BME280;23738;50.422;18.758;2022-12-07T09:00:06;98002.61;;;1.89;88.64
37904;BME280;23738;50.422;18.758;2022-12-07T09:02:33;98006.52;;;1.89;88.78
37904;BME280;23738;50.422;18.758;2022-12-07T09:04:58;98001.80;;;1.89;88.82
37904;BME280;23738;50.422;18.758;2022-12-07T09:07:25;97998.70;;;1.93;89.05
37904;BME280;23738;50.422;18.758;2022-12-07T09:09:52;98000.67;;;2.00;88.99
37904;BME280;23738;50.422;18.758;2022-12-07T09:12:17;97994.52;;;2.05;88.91
37904;BME280;23738;50.422;18.758;2022-12-07T09:14:43;97991.09;;;2.08;88.86
37904;BME280;23738;50.422;18.758;2022-12-07T09:17:11;97982.81;;;2.13;89.14
37904;BME280;23738;50.422;18.758;2022-12-07T09:19:38;97985.59;;;2.19;89.27
37904;BME280;23738;50.422;18.758;2022-12-07T09:22:04;97977.61;;;2.25;89.33
37904;BME280;23738;50.422;18.758;2022-12-07T09:24:31;97975.51;;;2.33;89.36
37904;BME280;23738;50.422;18.758;2022-12-07T09:26:58;97973.09;;;2.39;89.26
37904;BME280;23738;50.422;18.758;2022-12-07T09:29:24;97970.33;;;2.45;89.25
37904;BME280;23738;50.422;18.758;2022-12-07T09:31:51;97965.12;;;2.53;89.48
37904;BME280;23738;50.422;18.758;2022-12-07T09:34:17;97961.19;;;2.57;89.37
37904;BME280;23738;50.422;18.758;2022-12-07T09:36:44;97957.95;;;2.63;89.46
37904;BME280;23738;50.422;18.758;2022-12-07T09:39:10;97964.30;;;2.68;89.54
37904;BME280;23738;50.422;18.758;2022-12-07T09:41:41;97956.81;;;2.69;89.17
37904;BME280;23738;50.422;18.758;2022-12-07T09:44:14;97959.26;;;2.71;89.21
37904;BME280;23738;50.422;18.758;2022-12-07T09:46:43;97952.41;;;2.78;89.36
37904;BME280;23738;50.422;18.758;2022-12-07T09:49:21;97951.25;;;2.85;89.32
37904;BME280;23738;50.422;18.758;2022-12-07T09:52:16;97949.63;;;2.84;89.24
37904;BME280;23738;50.422;18.758;2022-12-07T09:54:35;97945.04;;;2.90;89.38
37904;BME280;23738;50.422;18.758;2022-12-07T09:57:02;97939.34;;;2.94;89.37
37904;BME280;23738;50.422;18.758;2022-12-07T09:59:29;97935.90;;;2.98;89.34
37904;BME280;23738;50.422;18.758;2022-12-07T10:01:55;97930.69;;;3.02;89.22
37904;BME280;23738;50.422;18.758;2022-12-07T10:04:23;97931.64;;;3.09;89.34
37904;BME280;23738;50.422;18.758;2022-12-07T10:06:50;97927.06;;;3.19;89.60
37904;BME280;23738;50.422;18.758;2022-12-07T10:09:19;97925.08;;;3.25;89.49
37904;BME280;23738;50.422;18.758;2022-12-07T10:12:10;97924.10;;;3.26;89.29
37904;BME280;23738;50.422;18.758;2022-12-07T10:14:40;97921.00;;;3.27;89.25
37904;BME280;23738;50.422;18.758;2022-12-07T10:17:40;97912.49;;;3.29;89.24
37904;BME280;23738;50.422;18.758;2022-12-07T10:22:57;97902.34;;;3.42;89.00
37904;BME280;23738;50.422;18.758;2022-12-07T10:25:35;97899.08;;;3.40;88.96
37904;BME280;23738;50.422;18.758;2022-12-07T10:30:53;97893.05;;;3.39;89.05
37904;BME280;23738;50.422;18.758;2022-12-07T10:35:58;97891.91;;;3.42;88.83
37904;BME280;23738;50.422;18.758;2022-12-07T10:38:26;97890.41;;;3.43;88.81
37904;BME280;23738;50.422;18.758;2022-12-07T10:41:04;97893.17;;;3.46;88.81
37904;BME280;23738;50.422;18.758;2022-12-07T10:43:31;97889.59;;;3.47;88.83
37904;BME280;23738;50.422;18.758;2022-12-07T10:46:13;97896.44;;;3.48;88.77
37904;BME280;23738;50.422;18.758;2022-12-07T10:49:38;97890.08;;;3.46;88.77
37904;BME280;23738;50.422;18.758;2022-12-07T10:51:59;97889.78;;;3.41;88.60
37904;BME280;23738;50.422;18.758;2022-12-07T11:00:26;97884.39;;;3.39;88.46
37904;BME280;23738;50.422;18.758;2022-12-07T11:08:38;97888.15;;;3.36;88.56
37904;BME280;23738;50.422;18.758;2022-12-07T11:14:31;97882.08;;;3.44;88.48
37904;BME280;23738;50.422;18.758;2022-12-07T11:17:22;97873.59;;;3.50;88.36
37904;BME280;23738;50.422;18.758;2022-12-07T11:20:02;97876.36;;;3.49;88.23
37904;BME280;23738;50.422;18.758;2022-12-07T11:22:49;97874.41;;;3.46;88.25
37904;BME280;23738;50.422;18.758;2022-12-07T11:25:48;97864.62;;;3.44;88.26
37904;BME280;23738;50.422;18.758;2022-12-07T11:33:46;97859.55;;;3.78;88.23
37904;BME280;23738;50.422;18.758;2022-12-07T11:39:16;97849.03;;;4.13;88.37
37904;BME280;23738;50.422;18.758;2022-12-07T11:42:04;97851.85;;;4.26;88.21
37904;BME280;23738;50.422;18.758;2022-12-07T11:47:34;97848.14;;;4.39;88.05
37904;BME280;23738;50.422;18.758;2022-12-07T11:53:01;97843.60;;;4.37;87.93
37904;BME280;23738;50.422;18.758;2022-12-07T12:06:42;97842.80;;;4.33;87.74
37904;BME280;23738;50.422;18.758;2022-12-07T12:23:23;97831.72;;;4.12;87.74
37904;BME280;23738;50.422;18.758;2022-12-07T12:25:52;97824.20;;;4.13;87.77
37904;BME280;23738;50.422;18.758;2022-12-07T12:33:44;97822.21;;;3.92;87.43
37904;BME280;23738;50.422;18.758;2022-12-07T12:36:19;97822.70;;;3.92;87.30
37904;BME280;23738;50.422;18.758;2022-12-07T12:39:11;97812.14;;;3.85;87.29
37904;BME280;23738;50.422;18.758;2022-12-07T12:44:38;97812.45;;;3.90;87.73
37904;BME280;23738;50.422;18.758;2022-12-07T12:47:04;97807.52;;;3.91;87.66
37904;BME280;23738;50.422;18.758;2022-12-07T12:49:37;97807.72;;;3.90;87.58
37904;BME280;23738;50.422;18.758;2022-12-07T12:57:42;97809.73;;;3.79;87.07
37904;BME280;23738;50.422;18.758;2022-12-07T13:00:21;97806.16;;;3.76;87.33
37904;BME280;23738;50.422;18.758;2022-12-07T13:02:54;97796.69;;;3.75;87.32
37904;BME280;23738;50.422;18.758;2022-12-07T13:05:29;97796.41;;;3.70;87.14
37904;BME280;23738;50.422;18.758;2022-12-07T13:08:19;97805.10;;;3.67;87.13
37904;BME280;23738;50.422;18.758;2022-12-07T13:10:47;97804.95;;;3.64;87.00
37904;BME280;23738;50.422;18.758;2022-12-07T13:18:37;97812.13;;;3.66;86.93
37904;BME280;23738;50.422;18.758;2022-12-07T13:26:36;97826.83;;;3.59;86.98
37904;BME280;23738;50.422;18.758;2022-12-07T13:34:37;97823.60;;;3.57;86.80
37904;BME280;23738;50.422;18.758;2022-12-07T13:37:24;97824.59;;;3.52;86.62
37904;BME280;23738;50.422;18.758;2022-12-07T13:39:54;97822.67;;;3.46;86.75
37904;BME280;23738;50.422;18.758;2022-12-07T13:42:27;97832.02;;;3.40;86.72
37904;BME280;23738;50.422;18.758;2022-12-07T13:44:55;97832.83;;;3.37;86.83
37904;BME280;23738;50.422;18.758;2022-12-07T13:47:38;97837.44;;;3.35;86.76
37904;BME280;23738;50.422;18.758;2022-12-07T13:50:26;97838.74;;;3.35;86.75
37904;BME280;23738;50.422;18.758;2022-12-07T13:52:58;97837.56;;;3.37;86.87
37904;BME280;23738;50.422;18.758;2022-12-07T13:55:26;97839.20;;;3.38;86.83
37904;BME280;23738;50.422;18.758;2022-12-07T13:57:53;97836.42;;;3.40;87.09
37904;BME280;23738;50.422;18.758;2022-12-07T14:00:23;97839.52;;;3.39;86.98
37904;BME280;23738;50.422;18.758;2022-12-07T14:02:59;97850.13;;;3.38;86.97
37904;BME280;23738;50.422;18.758;2022-12-07T14:05:34;97852.58;;;3.35;86.82
37904;BME280;23738;50.422;18.758;2022-12-07T14:08:21;97850.48;;;3.35;86.78
37904;BME280;23738;50.422;18.758;2022-12-07T14:10:53;97851.14;;;3.33;86.75
37904;BME280;23738;50.422;18.758;2022-12-07T14:13:34;97861.26;;;3.32;86.65
37904;BME280;23738;50.422;18.758;2022-12-07T14:16:25;97858.19;;;3.24;86.58
37904;BME280;23738;50.422;18.758;2022-12-07T14:18:57;97869.80;;;3.14;86.45
37904;BME280;23738;50.422;18.758;2022-12-07T14:21:27;97871.48;;;3.02;86.37
37904;BME280;23738;50.422;18.758;2022-12-07T14:24:14;97874.28;;;2.93;86.28
37904;BME280;23738;50.422;18.758;2022-12-07T14:26:45;97872.64;;;2.88;86.39
37904;BME280;23738;50.422;18.758;2022-12-07T14:31:58;97867.29;;;2.85;86.44
37904;BME280;23738;50.422;18.758;2022-12-07T14:35:02;97873.00;;;2.85;86.68
37904;BME280;23738;50.422;18.758;2022-12-07T14:37:30;97881.47;;;2.83;86.63
37904;BME280;23738;50.422;18.758;2022-12-07T14:39:56;97876.58;;;2.84;86.82
37904;BME280;23738;50.422;18.758;2022-12-07T14:42:26;97886.20;;;2.87;86.80
37904;BME280;23738;50.422;18.758;2022-12-07T14:44:53;97884.22;;;2.89;86.73
37904;BME280;23738;50.422;18.758;2022-12-07T14:47:19;97880.47;;;2.92;86.69
37904;BME280;23738;50.422;18.758;2022-12-07T14:49:45;97885.03;;;2.90;86.66
37904;BME280;23738;50.422;18.758;2022-12-07T14:52:27;97882.59;;;2.92;86.83
37904;BME280;23738;50.422;18.758;2022-12-07T14:54:53;97880.31;;;2.93;86.76
37904;BME280;23738;50.422;18.758;2022-12-07T14:57:19;97884.55;;;2.90;86.68
37904;BME280;23738;50.422;18.758;2022-12-07T14:59:45;97879.82;;;2.90;86.70
37904;BME280;23738;50.422;18.758;2022-12-07T15:02:13;97888.30;;;2.92;86.59
37904;BME280;23738;50.422;18.758;2022-12-07T15:04:39;97883.25;;;2.94;86.53
37904;BME280;23738;50.422;18.758;2022-12-07T15:07:12;97885.05;;;2.94;86.58
37904;BME280;23738;50.422;18.758;2022-12-07T15:09:42;97879.66;;;2.91;86.53
37904;BME280;23738;50.422;18.758;2022-12-07T15:12:08;97878.84;;;2.91;86.63
37904;BME280;23738;50.422;18.758;2022-12-07T15:14:34;97879.82;;;2.90;86.60
37904;BME280;23738;50.422;18.758;2022-12-07T15:16:59;97877.86;;;2.88;86.55
37904;BME280;23738;50.422;18.758;2022-12-07T15:19:25;97876.09;;;2.84;86.44